Terminal Aerodrome Forecast
Issued by NWS Springfield, MO

Home | Current Version | Previous Version | Text Only | Print | Product List | Glossary On
Versions: 1 2 3 4 5 6 7 8 9 10 11 12 13 14 15 16 17 18 19 20 21 22 23
000
FTUS43 KSGF 262023 AAB
TAFSGF
TAF AMD
KSGF 262023Z 2620/2718 34012KT P6SM VCSH BKN008 OVC012
     FM262300 31011KT P6SM VCSH OVC007
     FM270100 30006KT P6SM OVC007
      TEMPO 2710/2714 3SM BR
     FM271500 29008KT P6SM SCT250=

USA.gov is the U.S. government's official web portal to all federal, state and local government web resources and services.